Time,TemperatureF,DewpointF,PressureIn,WindDirection,WindDirectionDegrees,WindSpeedMPH,WindSpeedGustMPH,Humidity,HourlyPrecipIn,Conditions,Clouds,dailyrainin,SoftwareType,DateUTC
2013-05-20 00:11:00,58.0,57.7,29.41,North,-999,0.0,-999.0,99,-99.99,,,-99.99,Acu-Link.com,2013-05-20 05:11:00,
2013-05-20 00:26:00,57.6,57.3,29.41,North,-999,1.6,-999.0,99,-99.99,,,-99.99,Acu-Link.com,2013-05-20 05:26:00,
2013-05-20 00:41:00,57.6,57.3,29.43,North,-999,1.6,-999.0,99,-99.99,,,-99.99,Acu-Link.com,2013-05-20 05:41:00,
2013-05-20 00:57:00,57.6,57.3,29.43,North,-999,0.0,-999.0,99,-99.99,,,-99.99,Acu-Link.com,2013-05-20 05:57:00,
2013-05-20 01:12:00,57.4,57.1,29.43,North,-999,0.0,-999.0,99,-99.99,,,-99.99,Acu-Link.com,2013-05-20 06:12:00,
2013-05-20 01:27:00,56.7,56.4,29.43,North,-999,0.0,-999.0,99,-99.99,,,-99.99,Acu-Link.com,2013-05-20 06:27:00,
2013-05-20 01:42:00,56.6,56.3,29.42,North,-999,0.0,-999.0,99,-99.99,,,-99.99,Acu-Link.com,2013-05-20 06:42:00,
2013-05-20 01:58:00,56.6,56.3,29.42,North,-999,0.0,-999.0,99,-99.99,,,-99.99,Acu-Link.com,2013-05-20 06:58:00,
2013-05-20 02:13:00,56.5,56.2,29.42,North,-999,1.6,-999.0,99,-99.99,,,-99.99,Acu-Link.com,2013-05-20 07:13:00,
2013-05-20 02:28:00,56.7,56.4,29.41,North,-999,0.0,-999.0,99,-99.99,,,-99.99,Acu-Link.com,2013-05-20 07:28:00,
2013-05-20 02:43:00,56.3,56.0,29.41,North,-999,1.6,-999.0,99,-99.99,,,-99.99,Acu-Link.com,2013-05-20 07:43:00,
2013-05-20 02:59:00,56.0,55.7,29.41,North,-999,3.2,-999.0,99,-99.99,,,-99.99,Acu-Link.com,2013-05-20 07:59:00,
2013-05-20 03:15:00,56.3,56.0,29.41,North,-999,3.2,-999.0,99,-99.99,,,-99.99,Acu-Link.com,2013-05-20 08:15:00,
2013-05-20 03:30:00,56.1,55.8,29.40,North,-999,3.2,-999.0,99,-99.99,,,-99.99,Acu-Link.com,2013-05-20 08:30:00,
2013-05-20 03:45:00,56.0,55.7,29.40,North,-999,3.2,-999.0,99,-99.99,,,-99.99,Acu-Link.com,2013-05-20 08:45:00,
2013-05-20 04:00:00,55.6,55.3,29.41,North,-999,6.4,-999.0,99,-99.99,,,-99.99,Acu-Link.com,2013-05-20 09:00:00,
2013-05-20 04:15:00,55.9,55.6,29.41,North,-999,4.8,-999.0,99,-99.99,,,-99.99,Acu-Link.com,2013-05-20 09:15:00,
2013-05-20 04:46:00,56.8,56.5,29.41,North,-999,0.0,-999.0,99,-99.99,,,-99.99,Acu-Link.com,2013-05-20 09:46:00,
2013-05-20 05:01:00,57.1,56.8,29.42,North,-999,1.6,-999.0,99,-99.99,,,-99.99,Acu-Link.com,2013-05-20 10:01:00,
2013-05-20 05:16:00,57.4,57.1,29.44,North,-999,1.6,-999.0,99,-99.99,,,-99.99,Acu-Link.com,2013-05-20 10:16:00,
2013-05-20 05:32:00,58.1,57.8,29.45,North,-999,8.0,-999.0,99,-99.99,,,-99.99,Acu-Link.com,2013-05-20 10:32:00,
2013-05-20 05:47:00,57.9,57.6,29.46,North,-999,0.0,-999.0,99,-99.99,,,-99.99,Acu-Link.com,2013-05-20 10:47:00,
2013-05-20 06:03:00,57.2,56.9,29.47,North,-999,0.0,-999.0,99,-99.99,,,-99.99,Acu-Link.com,2013-05-20 11:03:00,
2013-05-20 06:18:00,57.3,57.0,29.47,North,-999,0.0,-999.0,99,-99.99,,,-99.99,Acu-Link.com,2013-05-20 11:18:00,
2013-05-20 06:33:00,57.7,57.4,29.48,North,-999,0.0,-999.0,99,-99.99,,,-99.99,Acu-Link.com,2013-05-20 11:33:00,
2013-05-20 06:48:00,58.7,58.1,29.50,North,-999,1.6,-999.0,98,-99.99,,,-99.99,Acu-Link.com,2013-05-20 11:48:00,
2013-05-20 07:04:00,59.0,58.7,29.50,North,-999,0.0,-999.0,99,-99.99,,,-99.99,Acu-Link.com,2013-05-20 12:04:00,
2013-05-20 07:19:00,58.8,58.5,29.51,North,-999,0.0,-999.0,99,-99.99,,,-99.99,Acu-Link.com,2013-05-20 12:19:00,
2013-05-20 07:34:00,60.4,59.0,29.52,North,-999,0.0,-999.0,95,-99.99,,,-99.99,Acu-Link.com,2013-05-20 12:34:00,
2013-05-20 07:49:00,62.2,59.8,29.53,North,-999,3.2,-999.0,92,-99.99,,,-99.99,Acu-Link.com,2013-05-20 12:49:00,
2013-05-20 08:05:00,64.6,60.3,29.53,North,-999,4.8,-999.0,86,-99.99,,,-99.99,Acu-Link.com,2013-05-20 13:05:00,
2013-05-20 08:20:00,62.9,58.6,29.54,North,-999,9.6,-999.0,86,-99.99,,,-99.99,Acu-Link.com,2013-05-20 13:20:00,
2013-05-20 08:36:00,66.1,60.8,29.54,North,-999,0.0,-999.0,83,-99.99,,,-99.99,Acu-Link.com,2013-05-20 13:36:00,
2013-05-20 08:51:00,64.5,59.2,29.54,North,-999,3.2,-999.0,83,-99.99,,,-99.99,Acu-Link.com,2013-05-20 13:51:00,
2013-05-20 09:06:00,68.2,61.1,29.52,North,-999,1.6,-999.0,78,-99.99,,,-99.99,Acu-Link.com,2013-05-20 14:06:00,
2013-05-20 09:21:00,65.5,59.5,29.54,North,-999,3.2,-999.0,81,-99.99,,,-99.99,Acu-Link.com,2013-05-20 14:21:00,
2013-05-20 09:37:00,69.0,60.4,29.53,North,-999,4.8,-999.0,74,-99.99,,,-99.99,Acu-Link.com,2013-05-20 14:37:00,
2013-05-20 09:52:00,67.4,58.8,29.54,North,-999,8.0,-999.0,74,-99.99,,,-99.99,Acu-Link.com,2013-05-20 14:52:00,
2013-05-20 10:07:00,68.8,59.0,29.54,North,-999,3.2,-999.0,71,-99.99,,,-99.99,Acu-Link.com,2013-05-20 15:07:00,
2013-05-20 10:22:00,69.6,60.2,29.54,North,-999,1.6,-999.0,72,-99.99,,,-99.99,Acu-Link.com,2013-05-20 15:22:00,
2013-05-20 10:38:00,70.9,61.4,29.54,North,-999,3.2,-999.0,72,-99.99,,,-99.99,Acu-Link.com,2013-05-20 15:38:00,
2013-05-20 10:53:00,70.7,60.4,29.54,North,-999,4.8,-999.0,70,-99.99,,,-99.99,Acu-Link.com,2013-05-20 15:53:00,
2013-05-20 11:08:00,70.3,59.6,29.54,North,-999,3.2,-999.0,69,-99.99,,,-99.99,Acu-Link.com,2013-05-20 16:08:00,
2013-05-20 11:24:00,71.5,61.6,29.53,North,-999,3.2,-999.0,71,-99.99,,,-99.99,Acu-Link.com,2013-05-20 16:24:00,
2013-05-20 11:39:00,72.4,60.8,29.54,North,-999,11.2,-999.0,67,-99.99,,,-99.99,Acu-Link.com,2013-05-20 16:39:00,
2013-05-20 11:54:00,72.0,59.6,29.53,North,-999,8.0,-999.0,65,-99.99,,,-99.99,Acu-Link.com,2013-05-20 16:54:00,
2013-05-20 12:09:00,70.1,59.0,29.54,North,-999,6.4,-999.0,68,-99.99,,,-99.99,Acu-Link.com,2013-05-20 17:09:00,
2013-05-20 12:24:00,71.2,61.7,29.54,North,-999,9.6,-999.0,72,-99.99,,,-99.99,Acu-Link.com,2013-05-20 17:24:00,
2013-05-20 12:39:00,72.8,59.9,29.54,North,-999,14.5,-999.0,64,-99.99,,,-99.99,Acu-Link.com,2013-05-20 17:39:00,
2013-05-20 12:55:00,71.8,59.4,29.54,North,-999,14.5,-999.0,65,-99.99,,,-99.99,Acu-Link.com,2013-05-20 17:55:00,
2013-05-20 13:10:00,72.9,61.7,29.53,North,-999,11.2,-999.0,68,-99.99,,,-99.99,Acu-Link.com,2013-05-20 18:10:00,
2013-05-20 13:25:00,71.5,59.1,29.53,North,-999,14.5,-999.0,65,-99.99,,,-99.99,Acu-Link.com,2013-05-20 18:25:00,
2013-05-20 13:40:00,72.2,61.0,29.52,North,-999,8.0,-999.0,68,-99.99,,,-99.99,Acu-Link.com,2013-05-20 18:40:00,
2013-05-20 13:56:00,73.0,60.1,29.51,North,-999,14.5,-999.0,64,-99.99,,,-99.99,Acu-Link.com,2013-05-20 18:56:00,
2013-05-20 14:11:00,73.1,61.9,29.50,North,-999,12.8,-999.0,68,-99.99,,,-99.99,Acu-Link.com,2013-05-20 19:11:00,
2013-05-20 14:26:00,72.1,61.4,29.51,North,-999,9.6,-999.0,69,-99.99,,,-99.99,Acu-Link.com,2013-05-20 19:26:00,
2013-05-20 14:42:00,70.6,60.3,29.51,North,-999,11.2,-999.0,70,-99.99,,,-99.99,Acu-Link.com,2013-05-20 19:42:00,
2013-05-20 14:57:00,70.9,60.6,29.51,North,-999,11.2,-999.0,70,-99.99,,,-99.99,Acu-Link.com,2013-05-20 19:57:00,
2013-05-20 15:12:00,75.9,59.6,29.50,North,-999,6.4,-999.0,57,-99.99,,,-99.99,Acu-Link.com,2013-05-20 20:12:00,
2013-05-20 15:27:00,75.0,58.2,29.50,North,-999,12.8,-999.0,56,-99.99,,,-99.99,Acu-Link.com,2013-05-20 20:27:00,
2013-05-20 15:43:00,76.3,58.4,29.49,North,-999,8.0,-999.0,54,-99.99,,,-99.99,Acu-Link.com,2013-05-20 20:43:00,
2013-05-20 15:58:00,76.7,58.8,29.49,North,-999,8.0,-999.0,54,-99.99,,,-99.99,Acu-Link.com,2013-05-20 20:58:00,
2013-05-20 16:13:00,73.3,56.1,29.49,North,-999,17.7,-999.0,55,-99.99,,,-99.99,Acu-Link.com,2013-05-20 21:13:00,
2013-05-20 16:28:00,73.3,56.1,29.48,North,-999,8.0,-999.0,55,-99.99,,,-99.99,Acu-Link.com,2013-05-20 21:28:00,
2013-05-20 16:44:00,72.5,56.4,29.47,North,-999,6.4,-999.0,57,-99.99,,,-99.99,Acu-Link.com,2013-05-20 21:44:00,
2013-05-20 16:59:00,73.9,56.2,29.47,North,-999,8.0,-999.0,54,-99.99,,,-99.99,Acu-Link.com,2013-05-20 21:59:00,
2013-05-20 17:14:00,73.8,55.6,29.46,North,-999,4.8,-999.0,53,-99.99,,,-99.99,Acu-Link.com,2013-05-20 22:14:00,
2013-05-20 17:30:00,73.9,55.7,29.46,North,-999,4.8,-999.0,53,-99.99,,,-99.99,Acu-Link.com,2013-05-20 22:30:00,
2013-05-20 17:45:00,75.2,54.7,29.45,North,-999,16.1,-999.0,49,-99.99,,,-99.99,Acu-Link.com,2013-05-20 22:45:00,
2013-05-20 18:01:00,75.0,55.1,29.44,North,-999,16.1,-999.0,50,-99.99,,,-99.99,Acu-Link.com,2013-05-20 23:01:00,
2013-05-20 18:16:00,74.5,55.7,29.44,North,-999,1.6,-999.0,52,-99.99,,,-99.99,Acu-Link.com,2013-05-20 23:16:00,
2013-05-20 18:31:00,74.2,54.3,29.44,North,-999,8.0,-999.0,50,-99.99,,,-99.99,Acu-Link.com,2013-05-20 23:31:00,
2013-05-20 18:47:00,73.6,53.8,29.44,North,-999,4.8,-999.0,50,-99.99,,,-99.99,Acu-Link.com,2013-05-20 23:47:00,
2013-05-20 19:02:00,72.7,51.9,29.45,North,-999,6.4,-999.0,48,-99.99,,,-99.99,Acu-Link.com,2013-05-21 00:02:00,
2013-05-20 19:17:00,72.1,52.4,29.44,North,-999,4.8,-999.0,50,-99.99,,,-99.99,Acu-Link.com,2013-05-21 00:17:00,
2013-05-20 19:32:00,71.1,53.1,29.45,North,-999,6.4,-999.0,53,-99.99,,,-99.99,Acu-Link.com,2013-05-21 00:32:00,
2013-05-20 19:47:00,69.4,53.0,29.45,North,-999,4.8,-999.0,56,-99.99,,,-99.99,Acu-Link.com,2013-05-21 00:47:00,
2013-05-20 20:03:00,68.3,53.4,29.45,North,-999,3.2,-999.0,59,-99.99,,,-99.99,Acu-Link.com,2013-05-21 01:03:00,
2013-05-20 20:18:00,67.2,53.7,29.46,North,-999,3.2,-999.0,62,-99.99,,,-99.99,Acu-Link.com,2013-05-21 01:18:00,
2013-05-20 20:33:00,65.9,53.8,29.47,North,-999,1.6,-999.0,65,-99.99,,,-99.99,Acu-Link.com,2013-05-21 01:33:00,
2013-05-20 20:48:00,64.5,53.7,29.47,North,-999,0.0,-999.0,68,-99.99,,,-99.99,Acu-Link.com,2013-05-21 01:48:00,
2013-05-20 21:03:00,63.9,53.5,29.47,North,-999,0.0,-999.0,69,-99.99,,,-99.99,Acu-Link.com,2013-05-21 02:03:00,
2013-05-20 21:19:00,63.0,53.4,29.48,North,-999,0.0,-999.0,71,-99.99,,,-99.99,Acu-Link.com,2013-05-21 02:19:00,
2013-05-20 21:34:00,62.2,53.1,29.48,North,-999,1.6,-999.0,72,-99.99,,,-99.99,Acu-Link.com,2013-05-21 02:34:00,
2013-05-20 21:49:00,61.6,53.6,29.49,North,-999,8.0,-999.0,75,-99.99,,,-99.99,Acu-Link.com,2013-05-21 02:49:00,
2013-05-20 22:05:00,60.9,54.3,29.49,North,-999,9.6,-999.0,79,-99.99,,,-99.99,Acu-Link.com,2013-05-21 03:05:00,
2013-05-20 22:20:00,61.1,55.6,29.49,North,-999,1.6,-999.0,82,-99.99,,,-99.99,Acu-Link.com,2013-05-21 03:20:00,
2013-05-20 22:35:00,60.9,56.0,29.50,North,-999,3.2,-999.0,84,-99.99,,,-99.99,Acu-Link.com,2013-05-21 03:35:00,
2013-05-20 22:51:00,60.7,56.5,29.50,North,-999,0.0,-999.0,86,-99.99,,,-99.99,Acu-Link.com,2013-05-21 03:51:00,
2013-05-20 23:06:00,60.3,56.7,29.51,North,-999,3.2,-999.0,88,-99.99,,,-99.99,Acu-Link.com,2013-05-21 04:06:00,
2013-05-20 23:21:00,59.8,57.5,29.51,North,-999,1.6,-999.0,92,-99.99,,,-99.99,Acu-Link.com,2013-05-21 04:21:00,
2013-05-20 23:36:00,60.1,58.4,29.51,North,-999,0.0,-999.0,94,-99.99,,,-99.99,Acu-Link.com,2013-05-21 04:36:00,
2013-05-20 23:52:00,60.0,58.3,29.51,North,-999,1.6,-999.0,94,-99.99,,,-99.99,Acu-Link.com,2013-05-21 04:52:00,